createdAt,value
2018-10-06T00:00:29.315Z,13.5
2018-10-06T00:01:09.876Z,13.47
2018-10-06T00:01:50.434Z,13.54
2018-10-06T00:02:31.008Z,13.5
2018-10-06T00:03:11.566Z,13.46
2018-10-06T00:03:52.131Z,13.52
2018-10-06T00:04:32.696Z,13.47
2018-10-06T00:05:13.262Z,13.53
2018-10-06T00:05:53.847Z,13.44
2018-10-06T00:06:34.408Z,13.5
2018-10-06T00:07:14.966Z,13.42
2018-10-06T00:07:55.526Z,13.39
2018-10-06T00:08:36.100Z,13.39
2018-10-06T00:09:16.644Z,13.38
2018-10-06T00:09:57.201Z,13.41
2018-10-06T00:10:37.761Z,13.47
2018-10-06T00:11:18.321Z,13.47
2018-10-06T00:11:58.871Z,13.47
2018-10-06T00:12:39.433Z,13.42
2018-10-06T00:13:20.000Z,13.47
2018-10-06T00:14:00.576Z,13.44
2018-10-06T00:14:41.135Z,13.49
2018-10-06T00:15:21.697Z,13.54
2018-10-06T00:16:02.253Z,13.33
2018-10-06T00:16:42.816Z,13.46
2018-10-06T00:17:23.390Z,13.44
2018-10-06T00:18:03.969Z,13.42
2018-10-06T00:18:47.173Z,13.42
2018-10-06T00:19:27.738Z,13.39
2018-10-06T00:20:08.292Z,13.54
2018-10-06T00:20:48.854Z,13.33
2018-10-06T00:21:29.432Z,13.39
2018-10-06T00:22:09.995Z,13.39
2018-10-06T00:22:50.557Z,13.39
2018-10-06T00:23:31.110Z,13.35
2018-10-06T00:24:11.714Z,13.41
2018-10-06T00:24:52.273Z,13.37
2018-10-06T00:25:32.839Z,13.35
2018-10-06T00:26:13.399Z,13.47
2018-10-06T00:26:53.968Z,13.41
2018-10-06T00:27:34.525Z,13.41
2018-10-06T00:28:15.096Z,13.31
2018-10-06T00:28:55.645Z,13.47
2018-10-06T00:29:36.208Z,13.38
2018-10-06T00:30:16.763Z,13.35
2018-10-06T00:30:57.335Z,13.38
2018-10-06T00:31:37.906Z,13.44
2018-10-06T00:32:18.473Z,13.39
2018-10-06T00:32:59.033Z,13.33
2018-10-06T00:33:39.594Z,13.39
2018-10-06T00:34:20.162Z,13.38
2018-10-06T00:35:00.723Z,13.38
2018-10-06T00:35:41.297Z,13.41
2018-10-06T00:36:21.859Z,13.38
2018-10-06T00:37:02.419Z,13.38
2018-10-06T00:37:42.966Z,13.37
2018-10-06T00:38:23.530Z,13.38
2018-10-06T00:39:04.096Z,13.33
2018-10-06T00:39:44.659Z,13.37
2018-10-06T00:40:25.255Z,13.31
2018-10-06T00:41:05.820Z,13.22
2018-10-06T00:41:46.385Z,13.3
2018-10-06T00:42:26.946Z,13.25
2018-10-06T00:43:07.514Z,13.22
2018-10-06T00:43:48.071Z,13.23
2018-10-06T00:44:28.648Z,13.27
2018-10-06T00:45:09.206Z,13.18
2018-10-06T00:45:49.767Z,13.2
2018-10-06T00:46:30.330Z,13.12
2018-10-06T00:47:10.923Z,13.25
2018-10-06T00:47:51.446Z,13.22
2018-10-06T00:48:32.011Z,13.23
2018-10-06T00:49:12.573Z,13.2
2018-10-06T00:49:53.126Z,13.19
2018-10-06T00:50:33.685Z,13.25
2018-10-06T00:51:14.258Z,13.09
2018-10-06T00:51:54.809Z,13.11
2018-10-06T00:52:35.364Z,13.11
2018-10-06T00:53:15.927Z,13.12
2018-10-06T00:53:56.489Z,13.05
2018-10-06T00:54:37.056Z,13.08
2018-10-06T00:55:17.618Z,13.11
2018-10-06T00:55:58.174Z,13.05
2018-10-06T00:56:38.745Z,13.03
2018-10-06T00:57:19.313Z,13.03
2018-10-06T00:57:59.866Z,13.01
2018-10-06T00:58:40.441Z,13.01
2018-10-06T00:59:20.996Z,13.04
2018-10-06T01:00:01.570Z,13.04
2018-10-06T01:00:42.129Z,13.04
2018-10-06T01:01:22.686Z,13.04
2018-10-06T01:02:03.235Z,13
2018-10-06T01:02:43.821Z,13.03
2018-10-06T01:03:24.388Z,13.05
2018-10-06T01:04:04.960Z,13.01
2018-10-06T01:04:45.527Z,13.01
2018-10-06T01:05:26.087Z,13.08
2018-10-06T01:06:06.650Z,13.01
2018-10-06T01:06:47.225Z,13.04
2018-10-06T01:07:27.792Z,13.12
2018-10-06T01:08:08.361Z,13.03
2018-10-06T01:08:48.953Z,13.03
2018-10-06T01:09:29.509Z,13.04
2018-10-06T01:10:10.105Z,13.01
2018-10-06T01:10:50.669Z,13.05
2018-10-06T01:11:31.232Z,13
2018-10-06T01:12:11.796Z,13.05
2018-10-06T01:12:52.389Z,12.98
2018-10-06T01:13:32.952Z,13.05
2018-10-06T01:14:13.521Z,12.98
2018-10-06T01:14:54.080Z,13.01
2018-10-06T01:15:34.634Z,13.01
2018-10-06T01:16:15.263Z,13
2018-10-06T01:16:55.812Z,13.03
2018-10-06T01:17:36.380Z,12.95
2018-10-06T01:18:16.942Z,13.04
2018-10-06T01:18:57.518Z,12.97
2018-10-06T01:19:38.083Z,12.95
2018-10-06T01:20:18.650Z,12.98
2018-10-06T01:20:59.219Z,12.93
2018-10-06T01:21:39.780Z,12.97
2018-10-06T01:22:20.348Z,13
2018-10-06T01:23:00.903Z,12.98
2018-10-06T01:23:41.462Z,13.03
2018-10-06T01:24:22.029Z,13.01
2018-10-06T01:25:02.603Z,12.95
2018-10-06T01:25:43.168Z,12.97
2018-10-06T01:26:23.728Z,12.94
2018-10-06T01:27:04.284Z,12.93
2018-10-06T01:27:44.849Z,12.98
2018-10-06T01:28:25.413Z,13
2018-10-06T01:29:05.990Z,12.98
2018-10-06T01:29:46.547Z,12.94
2018-10-06T01:30:27.111Z,12.93
2018-10-06T01:31:07.677Z,13.03
2018-10-06T01:31:48.247Z,12.93
2018-10-06T01:32:28.809Z,12.93
2018-10-06T01:33:09.385Z,12.9
2018-10-06T01:33:49.951Z,12.93
2018-10-06T01:34:30.527Z,12.95
2018-10-06T01:35:11.116Z,12.95
2018-10-06T01:35:51.690Z,12.9
2018-10-06T01:36:32.242Z,12.83
2018-10-06T01:37:12.808Z,12.9
2018-10-06T01:37:53.372Z,12.85
2018-10-06T01:38:33.924Z,12.91
2018-10-06T01:39:14.493Z,12.83
2018-10-06T01:39:55.051Z,12.86
2018-10-06T01:40:35.624Z,12.87
2018-10-06T01:41:16.188Z,12.83
2018-10-06T01:41:56.756Z,12.83
2018-10-06T01:42:37.333Z,12.78
2018-10-06T01:43:17.892Z,12.83
2018-10-06T01:43:58.459Z,12.86
2018-10-06T01:44:39.024Z,12.82
2018-10-06T01:45:19.582Z,12.8
2018-10-06T01:46:00.153Z,12.73
2018-10-06T01:46:40.707Z,12.86
2018-10-06T01:47:21.274Z,12.85
2018-10-06T01:48:01.847Z,12.83
2018-10-06T01:48:42.441Z,12.76
2018-10-06T01:49:23.060Z,12.72
2018-10-06T01:50:03.818Z,12.79
2018-10-06T01:50:44.156Z,12.78
2018-10-06T01:51:24.721Z,12.72
2018-10-06T01:52:05.272Z,12.72
2018-10-06T01:52:45.834Z,12.75
2018-10-06T01:53:26.405Z,12.75
2018-10-06T01:54:06.956Z,12.68
2018-10-06T01:54:47.526Z,12.73
2018-10-06T01:55:28.084Z,12.75
2018-10-06T01:56:08.650Z,12.8
2018-10-06T01:56:49.220Z,12.72
2018-10-06T01:57:29.786Z,12.75
2018-10-06T01:58:10.364Z,12.72
2018-10-06T01:58:50.923Z,12.75
2018-10-06T01:59:31.484Z,12.78
2018-10-06T02:00:12.081Z,12.76
2018-10-06T02:00:52.633Z,12.73
2018-10-06T02:01:33.204Z,12.75
2018-10-06T02:02:13.774Z,12.68
2018-10-06T02:02:54.334Z,12.68
2018-10-06T02:03:34.897Z,12.8
2018-10-06T02:04:15.491Z,12.72
2018-10-06T02:04:56.057Z,12.75
2018-10-06T02:05:36.612Z,12.73
2018-10-06T02:06:17.168Z,12.8
2018-10-06T02:06:57.735Z,12.76
2018-10-06T02:07:38.284Z,12.76
2018-10-06T02:08:18.841Z,12.76
2018-10-06T02:08:59.390Z,12.76
2018-10-06T02:09:39.965Z,12.75
2018-10-06T02:10:20.518Z,12.73
2018-10-06T02:11:01.068Z,12.73
2018-10-06T02:11:41.624Z,12.73
2018-10-06T02:12:22.195Z,12.72
2018-10-06T02:13:02.763Z,12.78
2018-10-06T02:13:43.325Z,12.76
2018-10-06T02:14:23.884Z,12.7
2018-10-06T02:15:04.437Z,12.62
2018-10-06T02:15:44.987Z,12.72
2018-10-06T02:16:25.603Z,12.7
2018-10-06T02:17:06.165Z,12.64
2018-10-06T02:17:46.736Z,12.62
2018-10-06T02:18:27.305Z,12.61
2018-10-06T02:19:07.874Z,12.61
2018-10-06T02:19:48.415Z,12.58
2018-10-06T02:20:28.981Z,12.54
2018-10-06T02:21:09.533Z,12.6
2018-10-06T02:21:50.124Z,12.58
2018-10-06T02:22:30.685Z,12.61
2018-10-06T02:23:11.253Z,12.61
2018-10-06T02:23:51.848Z,12.65
2018-10-06T02:24:32.385Z,12.6
2018-10-06T02:25:12.950Z,12.54
2018-10-06T02:25:53.513Z,12.6
2018-10-06T02:26:34.081Z,12.6
2018-10-06T02:27:14.644Z,12.57
2018-10-06T02:27:55.227Z,12.55
2018-10-06T02:28:35.794Z,12.53
2018-10-06T02:29:16.361Z,12.58
2018-10-06T02:29:56.972Z,12.54
2018-10-06T02:30:37.474Z,12.58
2018-10-06T02:31:18.084Z,12.53
2018-10-06T02:31:58.648Z,12.58
2018-10-06T02:32:39.212Z,12.53
2018-10-06T02:33:19.770Z,12.55
2018-10-06T02:34:00.330Z,12.55
2018-10-06T02:34:40.886Z,12.55
2018-10-06T02:35:21.457Z,12.55
2018-10-06T02:36:02.014Z,12.54
2018-10-06T02:36:42.627Z,12.55
2018-10-06T02:37:23.132Z,12.53
2018-10-06T02:38:03.692Z,12.54
2018-10-06T02:38:44.249Z,12.54
2018-10-06T02:39:24.809Z,12.5
2018-10-06T02:40:05.368Z,12.49
2018-10-06T02:40:45.989Z,12.49
2018-10-06T02:41:26.549Z,12.46
2018-10-06T02:42:07.102Z,12.46
2018-10-06T02:42:47.668Z,12.46
2018-10-06T02:43:28.216Z,12.46
2018-10-06T02:44:08.774Z,12.49
2018-10-06T02:44:49.329Z,12.47
2018-10-06T02:45:29.882Z,12.47
2018-10-06T02:46:10.449Z,12.42
2018-10-06T02:46:51.008Z,12.46
2018-10-06T02:47:31.591Z,12.46
2018-10-06T02:48:12.156Z,12.47
2018-10-06T02:48:52.698Z,12.45
2018-10-06T02:49:33.268Z,12.46
2018-10-06T02:50:13.823Z,12.42
2018-10-06T02:50:54.394Z,12.45
2018-10-06T02:51:34.956Z,12.42
2018-10-06T02:52:15.509Z,12.49
2018-10-06T02:52:56.068Z,12.46
2018-10-06T02:53:36.655Z,12.39
2018-10-06T02:54:17.225Z,12.47
2018-10-06T02:54:57.815Z,12.49
2018-10-06T02:55:38.381Z,12.46
2018-10-06T02:56:18.934Z,12.49
2018-10-06T02:56:59.498Z,12.43
2018-10-06T02:57:40.054Z,12.42
2018-10-06T02:58:20.617Z,12.47
2018-10-06T02:59:01.170Z,12.37
2018-10-06T02:59:41.739Z,12.42
2018-10-06T03:00:22.292Z,12.49
2018-10-06T03:01:02.841Z,12.42
2018-10-06T03:01:43.411Z,12.43
2018-10-06T03:02:23.973Z,12.35
2018-10-06T03:03:04.574Z,12.45
2018-10-06T03:03:45.140Z,12.39
2018-10-06T03:04:25.750Z,12.39
2018-10-06T03:05:06.308Z,12.4
2018-10-06T03:05:46.846Z,12.37
2018-10-06T03:06:27.397Z,12.45
2018-10-06T03:07:07.961Z,12.42
2018-10-06T03:07:48.514Z,12.43
2018-10-06T03:08:29.085Z,12.42
2018-10-06T03:09:09.668Z,12.47
2018-10-06T03:09:50.268Z,12.42
2018-10-06T03:10:30.824Z,12.36
2018-10-06T03:11:11.405Z,12.4
2018-10-06T03:11:51.967Z,12.35
2018-10-06T03:12:32.600Z,12.37
2018-10-06T03:13:13.097Z,12.45
2018-10-06T03:13:53.648Z,12.35
2018-10-06T03:14:34.201Z,12.31
2018-10-06T03:15:14.769Z,12.36
2018-10-06T03:15:55.316Z,12.36
2018-10-06T03:16:35.911Z,12.39
2018-10-06T03:17:16.468Z,12.39
2018-10-06T03:17:57.031Z,12.4
2018-10-06T03:18:37.587Z,12.28
2018-10-06T03:19:18.143Z,12.32
2018-10-06T03:19:58.700Z,12.36
2018-10-06T03:20:39.281Z,12.28
2018-10-06T03:21:19.855Z,12.35
2018-10-06T03:22:00.403Z,12.25
2018-10-06T03:22:40.954Z,12.35
2018-10-06T03:23:21.523Z,12.29
2018-10-06T03:24:02.116Z,12.28
2018-10-06T03:24:42.691Z,12.35
2018-10-06T03:25:23.265Z,12.29
2018-10-06T03:26:03.820Z,12.36
2018-10-06T03:26:44.394Z,12.32
2018-10-06T03:27:24.957Z,12.39
2018-10-06T03:28:05.538Z,12.36
2018-10-06T03:28:46.132Z,12.31
2018-10-06T03:29:26.718Z,12.36
2018-10-06T03:30:07.296Z,12.39
2018-10-06T03:30:47.862Z,12.29
2018-10-06T03:31:28.434Z,12.35
2018-10-06T03:32:08.973Z,12.27
2018-10-06T03:32:49.554Z,12.31
2018-10-06T03:33:30.135Z,12.27
2018-10-06T03:34:10.714Z,12.35
2018-10-06T03:34:51.289Z,12.2
2018-10-06T03:35:31.880Z,12.24
2018-10-06T03:36:12.465Z,12.35
2018-10-06T03:36:53.003Z,12.32
2018-10-06T03:37:33.613Z,12.32
2018-10-06T03:38:14.176Z,12.31
2018-10-06T03:38:54.740Z,12.28
2018-10-06T03:39:35.312Z,12.24
2018-10-06T03:40:15.866Z,12.32
2018-10-06T03:40:56.460Z,12.22
2018-10-06T03:41:37.012Z,12.21
2018-10-06T03:42:17.585Z,12.2
2018-10-06T03:42:58.160Z,12.18
2018-10-06T03:43:38.738Z,12.24
2018-10-06T03:44:19.285Z,12.22
2018-10-06T03:44:59.837Z,12.13
2018-10-06T03:45:40.400Z,12.18
2018-10-06T03:46:20.960Z,12.2
2018-10-06T03:47:01.531Z,12.13
2018-10-06T03:47:42.090Z,12.17
2018-10-06T03:48:22.674Z,12.15
2018-10-06T03:49:03.240Z,12.1
2018-10-06T03:49:43.804Z,12.13
2018-10-06T03:50:24.366Z,12.2
2018-10-06T03:51:04.924Z,12.15
2018-10-06T03:51:45.522Z,12.15
2018-10-06T03:52:26.084Z,12.09
2018-10-06T03:53:06.648Z,12.12
2018-10-06T03:53:47.204Z,12.09
2018-10-06T03:54:27.789Z,12.13
2018-10-06T03:55:08.353Z,12.09
2018-10-06T03:55:48.918Z,11.99
2018-10-06T03:56:29.480Z,12.1
2018-10-06T03:57:10.042Z,12.02
2018-10-06T03:57:50.596Z,12.06
2018-10-06T03:58:31.167Z,12.02
2018-10-06T03:59:11.749Z,12.07
2018-10-06T03:59:52.318Z,12.03
2018-10-06T04:00:32.886Z,12.02
2018-10-06T04:01:13.448Z,11.91
2018-10-06T04:01:54.003Z,11.94
2018-10-06T04:02:34.583Z,11.97
2018-10-06T04:03:15.139Z,11.99
2018-10-06T04:03:55.703Z,12.02
2018-10-06T04:04:36.266Z,11.9
2018-10-06T04:05:16.820Z,11.91
2018-10-06T04:05:57.383Z,12
2018-10-06T04:06:37.942Z,11.94
2018-10-06T04:07:18.502Z,11.95
2018-10-06T04:07:59.072Z,11.87
2018-10-06T04:08:39.651Z,11.94
2018-10-06T04:09:20.218Z,11.94
2018-10-06T04:10:00.750Z,12.02
2018-10-06T04:10:41.307Z,11.97
2018-10-06T04:11:21.898Z,11.94
2018-10-06T04:12:02.461Z,11.9
2018-10-06T04:12:43.047Z,11.95
2018-10-06T04:13:23.602Z,11.94
2018-10-06T04:14:04.184Z,11.95
2018-10-06T04:14:44.754Z,11.88
2018-10-06T04:15:25.306Z,11.91
2018-10-06T04:16:05.907Z,11.94
2018-10-06T04:16:46.464Z,11.99
2018-10-06T04:17:27.020Z,11.83
2018-10-06T04:18:07.607Z,11.86
2018-10-06T04:18:48.178Z,11.86
2018-10-06T04:19:28.753Z,11.83
2018-10-06T04:20:09.313Z,11.81
2018-10-06T04:20:49.905Z,11.83
2018-10-06T04:21:30.476Z,11.86
2018-10-06T04:22:11.034Z,11.95
2018-10-06T04:22:51.603Z,11.87
2018-10-06T04:23:32.165Z,11.8
2018-10-06T04:24:12.714Z,11.84
2018-10-06T04:24:53.273Z,11.83
2018-10-06T04:25:33.838Z,11.81
2018-10-06T04:26:14.369Z,11.81
2018-10-06T04:26:54.929Z,11.75
2018-10-06T04:27:35.503Z,11.86
2018-10-06T04:28:16.099Z,11.73
2018-10-06T04:28:56.625Z,11.73
2018-10-06T04:29:37.200Z,11.73
2018-10-06T04:30:17.755Z,11.7
2018-10-06T04:30:58.397Z,11.7
2018-10-06T04:31:38.907Z,11.7
2018-10-06T04:32:19.486Z,11.73
2018-10-06T04:33:00.031Z,11.69
2018-10-06T04:33:40.602Z,11.69
2018-10-06T04:34:21.163Z,11.72
2018-10-06T04:35:01.718Z,11.7
2018-10-06T04:35:42.268Z,11.73
2018-10-06T04:36:22.833Z,11.78
2018-10-06T04:37:03.400Z,11.81
2018-10-06T04:37:43.968Z,11.7
2018-10-06T04:38:24.561Z,11.73
2018-10-06T04:39:05.122Z,11.88
2018-10-06T04:39:45.675Z,11.81
2018-10-06T04:40:26.228Z,11.88
2018-10-06T04:41:06.802Z,11.83
2018-10-06T04:41:47.372Z,11.83
2018-10-06T04:42:27.932Z,11.8
2018-10-06T04:43:08.500Z,11.83
2018-10-06T04:43:49.058Z,11.84
2018-10-06T04:44:29.632Z,11.87
2018-10-06T04:45:10.195Z,11.83
2018-10-06T04:45:50.776Z,11.83
2018-10-06T04:46:31.358Z,11.8
2018-10-06T04:47:11.943Z,11.87
2018-10-06T04:47:52.522Z,11.84
2018-10-06T04:48:33.066Z,11.81
2018-10-06T04:49:13.636Z,11.83
2018-10-06T04:49:54.206Z,11.84
2018-10-06T04:50:34.768Z,11.88
2018-10-06T04:51:15.328Z,11.95
2018-10-06T04:51:56.077Z,11.8
2018-10-06T04:52:36.640Z,11.88
2018-10-06T04:53:17.206Z,11.84
2018-10-06T04:53:57.753Z,11.86
2018-10-06T04:54:38.314Z,11.84
2018-10-06T04:55:18.902Z,11.81
2018-10-06T04:55:59.475Z,11.8
2018-10-06T04:56:40.040Z,11.83
2018-10-06T04:57:20.598Z,11.83
2018-10-06T04:58:01.149Z,11.83
2018-10-06T04:58:41.726Z,11.97
2018-10-06T04:59:22.289Z,11.87
2018-10-06T05:00:02.851Z,11.75
2018-10-06T05:00:43.423Z,11.81
2018-10-06T05:01:24.004Z,11.84
2018-10-06T05:02:04.558Z,11.83
2018-10-06T05:02:45.109Z,11.81
2018-10-06T05:03:25.702Z,11.81
2018-10-06T05:04:06.244Z,11.84
2018-10-06T05:04:46.807Z,11.78
2018-10-06T05:05:27.390Z,11.81
2018-10-06T05:06:07.938Z,11.8
2018-10-06T05:06:48.525Z,11.7
2018-10-06T05:07:29.100Z,11.73
2018-10-06T05:08:09.659Z,11.77
2018-10-06T05:08:50.223Z,11.81
2018-10-06T05:09:30.789Z,11.75
2018-10-06T05:10:11.346Z,11.75
2018-10-06T05:10:51.936Z,11.73
2018-10-06T05:11:32.495Z,11.81
2018-10-06T05:12:13.056Z,11.77
2018-10-06T05:12:53.624Z,11.72
2018-10-06T05:13:34.249Z,11.7
2018-10-06T05:14:14.837Z,11.81
2018-10-06T05:14:55.399Z,11.75
2018-10-06T05:15:35.963Z,11.73
2018-10-06T05:16:16.521Z,11.75
2018-10-06T05:16:57.107Z,11.78
2018-10-06T05:17:37.678Z,11.81
2018-10-06T05:18:18.249Z,11.73
2018-10-06T05:18:58.796Z,11.78
2018-10-06T05:19:39.348Z,11.77
2018-10-06T05:20:19.927Z,11.77
2018-10-06T05:21:00.483Z,11.77
2018-10-06T05:21:41.049Z,11.8
2018-10-06T05:22:21.610Z,11.8
2018-10-06T05:23:02.187Z,11.81
2018-10-06T05:23:42.890Z,11.77
2018-10-06T05:24:23.314Z,11.77
2018-10-06T05:25:03.888Z,11.81
2018-10-06T05:25:44.464Z,11.7
2018-10-06T05:26:25.078Z,11.77
2018-10-06T05:27:05.630Z,11.78
2018-10-06T05:27:46.197Z,11.75
2018-10-06T05:28:26.792Z,11.77
2018-10-06T05:29:07.351Z,11.7
2018-10-06T05:29:47.926Z,11.72
2018-10-06T05:30:28.491Z,11.73
2018-10-06T05:31:09.052Z,11.72
2018-10-06T05:31:49.603Z,11.77
2018-10-06T05:32:30.164Z,11.81
2018-10-06T05:33:10.750Z,11.8
2018-10-06T05:33:51.344Z,11.73
2018-10-06T05:34:31.879Z,11.84
2018-10-06T05:35:12.459Z,11.75
2018-10-06T05:35:53.032Z,11.73
2018-10-06T05:36:33.581Z,11.77
2018-10-06T05:37:14.148Z,11.78
2018-10-06T05:37:54.712Z,11.77
2018-10-06T05:38:35.293Z,11.78
2018-10-06T05:39:15.844Z,11.72
2018-10-06T05:39:56.402Z,11.87
2018-10-06T05:40:36.968Z,11.8
2018-10-06T05:41:17.542Z,11.78
2018-10-06T05:41:58.105Z,11.84
2018-10-06T05:42:38.683Z,11.77
2018-10-06T05:43:19.246Z,11.78
2018-10-06T05:43:59.801Z,11.77
2018-10-06T05:44:40.368Z,11.86
2018-10-06T05:45:20.945Z,11.75
2018-10-06T05:46:01.515Z,11.78
2018-10-06T05:46:42.069Z,11.72
2018-10-06T05:47:22.663Z,11.72
2018-10-06T05:48:03.216Z,11.66
2018-10-06T05:48:43.762Z,11.69
2018-10-06T05:49:24.329Z,11.72
2018-10-06T05:50:04.887Z,11.7
2018-10-06T05:50:45.591Z,11.72
2018-10-06T05:51:26.161Z,11.72
2018-10-06T05:52:06.720Z,11.72
2018-10-06T05:52:47.285Z,11.8
2018-10-06T05:53:27.844Z,11.77
2018-10-06T05:54:08.411Z,11.77
2018-10-06T05:54:48.998Z,11.86
2018-10-06T05:55:29.583Z,11.83
2018-10-06T05:56:10.176Z,11.75
2018-10-06T05:56:50.829Z,11.81
2018-10-06T05:57:31.787Z,11.9
2018-10-06T05:58:12.645Z,11.84
2018-10-06T05:58:53.398Z,11.84
2018-10-06T05:59:34.122Z,11.8
2018-10-06T06:00:14.877Z,11.87
2018-10-06T06:00:55.496Z,11.84
2018-10-06T06:01:36.005Z,11.8
2018-10-06T06:02:16.558Z,11.86
2018-10-06T06:02:57.136Z,11.77
2018-10-06T06:03:37.703Z,11.83
2018-10-06T06:04:18.340Z,11.8
2018-10-06T06:04:59.090Z,11.78
2018-10-06T06:05:39.645Z,11.84
2018-10-06T06:06:21.171Z,11.86
2018-10-06T06:07:01.739Z,11.81
2018-10-06T06:07:42.975Z,11.78
2018-10-06T06:08:23.659Z,11.81
2018-10-06T06:09:04.239Z,11.86
2018-10-06T06:09:44.813Z,11.8
2018-10-06T06:10:25.372Z,11.84
2018-10-06T06:11:05.929Z,11.88
2018-10-06T06:11:46.723Z,11.87
2018-10-06T06:12:27.308Z,11.91
2018-10-06T06:13:08.294Z,11.91
2018-10-06T06:13:48.869Z,11.97
2018-10-06T06:14:29.414Z,11.94
2018-10-06T06:15:09.982Z,11.91
2018-10-06T06:15:50.686Z,11.95
2018-10-06T06:16:31.324Z,11.91
2018-10-06T06:17:13.187Z,11.94
2018-10-06T06:17:54.770Z,11.97
2018-10-06T06:18:35.495Z,11.91
2018-10-06T06:19:16.262Z,11.95
2018-10-06T06:19:56.923Z,11.91
2018-10-06T06:20:37.537Z,11.9
2018-10-06T06:21:18.090Z,11.9
2018-10-06T06:21:58.666Z,11.97
2018-10-06T06:22:39.697Z,11.94
2018-10-06T06:23:20.246Z,11.99
2018-10-06T06:24:00.882Z,12
2018-10-06T06:24:41.359Z,11.94
2018-10-06T06:25:22.268Z,11.99
2018-10-06T06:26:03.162Z,11.91
2018-10-06T06:26:43.895Z,12.06
2018-10-06T06:27:24.614Z,12.1
2018-10-06T06:28:05.199Z,12.03
2018-10-06T06:28:45.860Z,11.95
2018-10-06T06:29:26.815Z,12
2018-10-06T06:30:07.373Z,12.07
2018-10-06T06:30:47.950Z,12.07
2018-10-06T06:31:28.592Z,12.07
2018-10-06T06:32:09.195Z,12.09
2018-10-06T06:32:49.873Z,12.02
2018-10-06T06:33:30.552Z,11.94
2018-10-06T06:34:11.106Z,12.02
2018-10-06T06:34:51.669Z,11.97
2018-10-06T06:35:32.218Z,11.94
2018-10-06T06:36:12.802Z,12.06
2018-10-06T06:36:53.599Z,11.99
2018-10-06T06:37:34.269Z,12.12
2018-10-06T06:38:14.979Z,12.13
2018-10-06T06:38:55.954Z,12.09
2018-10-06T06:39:36.767Z,12.13
2018-10-06T06:40:17.533Z,12.17
2018-10-06T06:40:58.255Z,12.15
2018-10-06T06:41:38.897Z,12.12
2018-10-06T06:42:19.490Z,12.12
2018-10-06T06:44:32.352Z,12.17
2018-10-06T06:45:12.846Z,12.25
2018-10-06T06:45:53.485Z,12.18
2018-10-06T06:46:34.288Z,12.24
2018-10-06T06:47:14.839Z,12.31
2018-10-06T06:47:55.412Z,12.31
2018-10-06T06:48:36.095Z,12.29
2018-10-06T06:49:16.799Z,12.32
2018-10-06T06:49:57.417Z,12.36
2018-10-06T06:50:37.983Z,12.31
2018-10-06T06:51:18.551Z,12.37
2018-10-06T06:51:59.109Z,12.36
2018-10-06T06:52:39.781Z,12.35
2018-10-06T06:53:20.338Z,12.46
2018-10-06T06:54:00.888Z,12.37
2018-10-06T06:54:41.575Z,12.46
2018-10-06T06:55:22.141Z,12.45
2018-10-06T06:56:02.702Z,12.49
2018-10-06T06:56:43.262Z,12.45
2018-10-06T06:57:23.816Z,12.47
2018-10-06T06:58:04.404Z,12.49
2018-10-06T06:58:44.964Z,12.53
2018-10-06T06:59:25.526Z,12.49
2018-10-06T07:00:06.091Z,12.5
2018-10-06T07:00:46.659Z,12.53
2018-10-06T07:01:27.232Z,12.54
2018-10-06T07:02:07.806Z,12.53
2018-10-06T07:02:48.357Z,12.53
2018-10-06T07:03:28.915Z,12.5
2018-10-06T07:04:09.471Z,12.55
2018-10-06T07:04:50.018Z,12.61
2018-10-06T07:05:30.563Z,12.62
2018-10-06T07:06:11.112Z,12.65
2018-10-06T07:06:51.668Z,12.6
2018-10-06T07:07:32.221Z,12.62
2018-10-06T07:08:12.774Z,12.61
2018-10-06T07:08:53.335Z,12.68
2018-10-06T07:09:33.888Z,12.62
2018-10-06T07:10:14.432Z,12.78
2018-10-06T07:10:55.019Z,12.78
2018-10-06T07:11:35.581Z,12.75
2018-10-06T07:12:16.143Z,12.72
2018-10-06T07:12:56.709Z,12.82
2018-10-06T07:13:37.259Z,12.9
2018-10-06T07:14:17.813Z,12.95
2018-10-06T07:14:58.458Z,13.04
2018-10-06T07:15:38.956Z,13.09
2018-10-06T07:16:19.515Z,13.19
2018-10-06T07:17:00.091Z,13.33
2018-10-06T07:17:40.663Z,13.41
2018-10-06T07:18:21.232Z,13.41
2018-10-06T07:19:01.780Z,13.59
2018-10-06T07:19:42.344Z,13.72
2018-10-06T07:20:22.891Z,13.87
2018-10-06T07:21:03.449Z,14.03
2018-10-06T07:21:44.004Z,14.22
2018-10-06T07:22:24.562Z,14.35
2018-10-06T07:23:05.121Z,14.54
2018-10-06T07:23:45.688Z,14.79
2018-10-06T07:24:26.253Z,15
2018-10-06T07:25:06.796Z,15.29
2018-10-06T07:25:47.925Z,15.43
2018-10-06T07:26:28.648Z,15.79
2018-10-06T07:27:09.314Z,15.98
2018-10-06T07:27:49.853Z,16.33
2018-10-06T07:28:30.465Z,16.54
2018-10-06T07:29:10.984Z,16.79
2018-10-06T07:29:51.573Z,17.01
2018-10-06T07:30:32.218Z,17.22
2018-10-06T07:31:12.771Z,17.44
2018-10-06T07:31:53.345Z,17.6
2018-10-06T07:32:33.908Z,17.78
2018-10-06T07:33:14.477Z,17.94
2018-10-06T07:33:55.038Z,18.1
2018-10-06T07:34:36.409Z,18.31
2018-10-06T07:35:17.696Z,18.53
2018-10-06T07:35:58.897Z,18.75
2018-10-06T07:36:39.828Z,18.96
2018-10-06T07:37:20.497Z,19.11
2018-10-06T07:38:01.449Z,19.37
2018-10-06T07:38:42.452Z,19.54
2018-10-06T07:39:23.172Z,19.74
2018-10-06T07:40:03.736Z,19.86
2018-10-06T07:40:44.469Z,19.94
2018-10-06T07:41:25.371Z,20.03
2018-10-06T07:42:06.068Z,20.14
2018-10-06T07:42:47.133Z,20.13
2018-10-06T07:43:28.131Z,20.14
2018-10-06T07:44:08.696Z,20.26
2018-10-06T07:44:50.211Z,20.32
2018-10-06T07:45:30.888Z,20.41
2018-10-06T07:46:11.487Z,20.39
2018-10-06T07:46:52.047Z,20.32
2018-10-06T07:47:32.624Z,20.29
2018-10-06T07:48:13.196Z,20.4
2018-10-06T07:48:53.794Z,20.41
2018-10-06T07:49:34.369Z,20.5
2018-10-06T07:50:14.979Z,20.59
2018-10-06T07:50:55.542Z,20.74
2018-10-06T07:51:36.413Z,20.78
2018-10-06T07:52:16.995Z,20.84
2018-10-06T07:52:57.575Z,20.96
2018-10-06T07:53:38.122Z,21.07
2018-10-06T07:54:18.700Z,21.09
2018-10-06T07:54:59.291Z,21.11
2018-10-06T07:55:39.916Z,21.05
2018-10-06T07:56:20.477Z,21.17
2018-10-06T07:57:01.069Z,21.12
2018-10-06T07:57:41.639Z,21.02
2018-10-06T07:58:22.213Z,20.95
2018-10-06T07:59:02.798Z,20.96
2018-10-06T07:59:43.341Z,20.96
2018-10-06T08:00:23.925Z,21.03
2018-10-06T08:01:04.518Z,21.15
2018-10-06T08:01:45.075Z,21.18
2018-10-06T08:02:25.638Z,21.33
2018-10-06T08:03:06.207Z,21.51
2018-10-06T08:03:46.774Z,21.5
2018-10-06T08:04:27.347Z,21.5
2018-10-06T08:05:07.918Z,21.67
2018-10-06T08:05:48.486Z,21.62
2018-10-06T08:06:29.128Z,21.76
2018-10-06T08:07:09.670Z,21.76
2018-10-06T08:07:50.236Z,21.99
2018-10-06T08:08:30.807Z,22.07
2018-10-06T08:09:11.376Z,22.11
2018-10-06T08:09:52.000Z,22.23
2018-10-06T08:10:32.559Z,22.38
2018-10-06T08:11:13.205Z,22.36
2018-10-06T08:11:53.766Z,22.36
2018-10-06T08:12:34.325Z,22.28
2018-10-06T08:13:14.909Z,22.14
2018-10-06T08:13:55.489Z,22.06
2018-10-06T08:14:36.050Z,22.07
2018-10-06T08:15:16.613Z,22.02
2018-10-06T08:15:57.177Z,22.11
2018-10-06T08:16:38.313Z,22.15
2018-10-06T08:17:18.868Z,22.04
2018-10-06T08:18:00.575Z,22.06
2018-10-06T08:18:41.149Z,22.07
2018-10-06T08:19:21.726Z,22.04
2018-10-06T08:20:02.402Z,22.02
2018-10-06T08:20:42.969Z,22.04
2018-10-06T08:21:23.536Z,21.89
2018-10-06T08:22:04.105Z,21.92
2018-10-06T08:22:44.692Z,21.83
2018-10-06T08:23:25.267Z,21.76
2018-10-06T08:24:05.839Z,21.67
2018-10-06T08:24:46.402Z,21.64
2018-10-06T08:25:26.970Z,21.52
2018-10-06T08:26:07.540Z,21.52
2018-10-06T08:26:48.132Z,21.37
2018-10-06T08:27:28.713Z,21.3
2018-10-06T08:28:09.289Z,21.2
2018-10-06T08:28:49.859Z,21.09
2018-10-06T08:29:30.419Z,20.99
2018-10-06T08:30:10.984Z,20.92
2018-10-06T08:30:51.545Z,20.81
2018-10-06T08:31:32.115Z,20.67
2018-10-06T08:32:12.677Z,20.67
2018-10-06T08:32:53.256Z,20.65
2018-10-06T08:33:33.818Z,20.58
2018-10-06T08:34:14.428Z,20.4
2018-10-06T08:34:54.933Z,20.44
2018-10-06T08:35:35.504Z,20.26
2018-10-06T08:36:16.087Z,20.36
2018-10-06T08:36:56.665Z,20.26
2018-10-06T08:37:37.211Z,20.37
2018-10-06T08:38:17.785Z,20.4
2018-10-06T08:38:58.373Z,20.4
2018-10-06T08:39:38.948Z,20.36
2018-10-06T08:40:19.525Z,20.37
2018-10-06T08:41:00.081Z,20.41
2018-10-06T08:41:40.662Z,20.41
2018-10-06T08:42:21.248Z,20.39
2018-10-06T08:43:01.830Z,20.41
2018-10-06T08:43:42.397Z,20.58
2018-10-06T08:44:22.959Z,20.36
2018-10-06T08:45:03.518Z,20.43
2018-10-06T08:45:44.104Z,20.47
2018-10-06T08:46:24.681Z,20.48